createdAt,value
2024-03-01T00:04:44.816Z,6.97
2024-03-01T00:09:46.514Z,6.96
2024-03-01T00:14:48.192Z,6.85
2024-03-01T00:19:50.367Z,6.72
2024-03-01T00:24:52.254Z,6.77
2024-03-01T00:29:54.218Z,6.82
2024-03-01T00:34:55.901Z,6.84
2024-03-01T00:39:57.623Z,6.71
2024-03-01T00:44:59.428Z,6.57
2024-03-01T00:50:01.092Z,6.41
2024-03-01T00:55:02.804Z,6.27
2024-03-01T01:00:07.328Z,6.07
2024-03-01T01:05:09.900Z,5.98
2024-03-01T01:10:11.875Z,5.90
2024-03-01T01:15:14.379Z,5.58
2024-03-01T01:20:16.591Z,5.36
2024-03-01T01:25:18.476Z,5.21
2024-03-01T01:30:20.288Z,5.12
2024-03-01T01:35:21.955Z,5.01
2024-03-01T01:40:23.731Z,5.03
2024-03-01T01:45:25.849Z,4.98
2024-03-01T01:50:27.789Z,4.91
2024-03-01T01:55:29.998Z,4.92
2024-03-01T02:00:32.235Z,4.73
2024-03-01T02:05:34.208Z,4.42
2024-03-01T02:10:36.047Z,4.26
2024-03-01T02:15:37.835Z,4.10
2024-03-01T02:21:08.224Z,3.98
2024-03-01T02:26:09.975Z,3.91
2024-03-01T02:31:12.461Z,3.85
2024-03-01T02:36:14.155Z,3.79
2024-03-01T02:41:15.767Z,3.72
2024-03-01T02:46:17.823Z,3.69
2024-03-01T02:51:19.532Z,3.59
2024-03-01T02:56:21.284Z,3.54
2024-03-01T03:01:24.699Z,3.41
2024-03-01T03:06:26.883Z,3.35
2024-03-01T03:11:28.536Z,3.29
2024-03-01T03:16:30.314Z,3.24
2024-03-01T03:21:32.001Z,3.21
2024-03-01T03:26:34.273Z,3.17
2024-03-01T03:31:36.028Z,3.12
2024-03-01T03:36:37.893Z,3.11
2024-03-01T03:41:39.799Z,3.12
2024-03-01T03:46:41.453Z,3.07
2024-03-01T03:51:43.589Z,3.05
2024-03-01T03:56:45.260Z,2.98
2024-03-01T04:01:46.945Z,2.92
2024-03-01T04:06:48.765Z,2.99
2024-03-01T04:11:50.659Z,2.98
2024-03-01T04:16:52.318Z,2.93
2024-03-01T04:21:54.070Z,2.92
2024-03-01T04:26:55.768Z,2.90
2024-03-01T04:31:57.490Z,2.88
2024-03-01T04:36:59.448Z,2.88
2024-03-01T04:42:01.883Z,2.81
2024-03-01T04:47:03.636Z,2.74
2024-03-01T04:52:05.410Z,2.78
2024-03-01T04:57:09.049Z,2.81
2024-03-01T05:02:10.827Z,2.69
2024-03-01T05:07:15.968Z,2.78
2024-03-01T05:12:17.999Z,2.72
2024-03-01T05:17:19.772Z,2.66
2024-03-01T05:22:25.288Z,2.57
2024-03-01T05:27:27.085Z,2.57
2024-03-01T05:32:29.336Z,2.56
2024-03-01T05:37:31.222Z,2.51
2024-03-01T05:42:33.218Z,2.47
2024-03-01T05:47:45.316Z,2.50
2024-03-01T05:52:50.044Z,2.62
2024-03-01T05:57:51.813Z,2.60
2024-03-01T06:02:57.178Z,2.65
2024-03-01T06:08:00.364Z,2.73
2024-03-01T06:13:02.155Z,2.79
2024-03-01T06:18:04.006Z,2.77
2024-03-01T06:23:05.992Z,2.81
2024-03-01T06:28:07.684Z,2.89
2024-03-01T06:33:09.562Z,2.95
2024-03-01T06:38:11.312Z,3.06
2024-03-01T06:43:12.994Z,3.09
2024-03-01T06:48:19.337Z,3.19
2024-03-01T06:53:23.057Z,3.42
2024-03-01T06:58:24.682Z,3.63
2024-03-01T07:03:26.324Z,3.75
2024-03-01T07:08:28.374Z,3.89
2024-03-01T07:13:31.079Z,3.95
2024-03-01T07:18:32.864Z,4.06
2024-03-01T07:23:34.655Z,4.23
2024-03-01T07:28:36.518Z,4.38
2024-03-01T07:33:38.187Z,4.52
2024-03-01T07:38:40.541Z,4.48
2024-03-01T07:43:42.235Z,4.57
2024-03-01T07:48:45.517Z,4.77
2024-03-01T07:53:48.792Z,5.01
2024-03-01T07:59:03.975Z,5.10
2024-03-01T08:04:06.177Z,5.13
2024-03-01T08:09:19.239Z,5.33
2024-03-01T08:14:25.808Z,5.24
2024-03-01T08:19:37.656Z,5.34
2024-03-01T08:24:42.378Z,5.55
2024-03-01T08:29:44.212Z,5.79
2024-03-01T08:34:56.339Z,6.07
2024-03-01T08:39:58.554Z,6.31
2024-03-01T08:45:01.057Z,6.49
2024-03-01T08:50:21.497Z,6.54
2024-03-01T08:55:40.904Z,6.52
2024-03-01T09:00:54.442Z,6.71
2024-03-01T09:05:58.172Z,6.99
2024-03-01T09:11:00.251Z,7.11
2024-03-01T09:16:02.396Z,7.28
2024-03-01T09:21:04.629Z,7.36
2024-03-01T09:26:11.390Z,7.52
2024-03-01T09:31:13.263Z,7.43
2024-03-01T09:36:21.195Z,7.36
2024-03-01T09:41:50.300Z,7.64
2024-03-01T09:47:06.194Z,7.87
2024-03-01T09:52:39.360Z,8.12
2024-03-01T09:57:53.430Z,8.28
2024-03-01T10:03:16.918Z,8.48
2024-03-01T10:08:51.327Z,8.76
2024-03-01T10:14:11.707Z,8.92
2024-03-01T10:19:22.982Z,9.04
2024-03-01T10:24:51.646Z,9.24
2024-03-01T10:29:56.383Z,9.28
2024-03-01T10:35:04.664Z,9.09
2024-03-01T10:40:16.591Z,8.98
2024-03-01T10:45:27.506Z,9.09
2024-03-01T10:50:29.893Z,9.31
2024-03-01T10:55:35.404Z,9.62
2024-03-01T11:01:00.492Z,9.84
2024-03-01T11:06:24.737Z,9.74
2024-03-01T11:11:38.364Z,9.82
2024-03-01T11:16:43.449Z,9.92
2024-03-01T11:21:49.685Z,10.08
2024-03-01T11:26:53.877Z,10.06
2024-03-01T11:32:05.821Z,10.19
2024-03-01T11:37:17.442Z,10.12
2024-03-01T11:42:41.120Z,10.49
2024-03-01T11:47:56.224Z,10.53
2024-03-01T11:53:12.220Z,10.69
2024-03-01T11:58:30.484Z,10.94
2024-03-01T12:04:37.490Z,11.11
2024-03-01T12:09:47.828Z,11.12
2024-03-01T12:14:56.346Z,11.28
2024-03-01T12:20:02.224Z,11.38
2024-03-01T12:25:07.724Z,11.47
2024-03-01T12:30:24.998Z,11.62
2024-03-01T12:35:54.493Z,11.67
2024-03-01T12:41:25.796Z,11.72
2024-03-01T12:46:40.205Z,11.73
2024-03-01T12:52:14.480Z,11.84
2024-03-01T12:57:43.742Z,11.87
2024-03-01T13:03:10.043Z,11.88
2024-03-01T13:08:18.200Z,11.79
2024-03-01T13:13:25.889Z,11.68
2024-03-01T13:18:33.201Z,11.52
2024-03-01T13:24:07.293Z,11.53
2024-03-01T13:29:17.281Z,11.52
2024-03-01T13:34:21.805Z,11.55
2024-03-01T13:39:34.118Z,11.81
2024-03-01T13:44:39.157Z,11.92
2024-03-01T13:49:43.143Z,11.82
2024-03-01T13:54:44.914Z,11.89
2024-03-01T13:59:48.149Z,11.99
2024-03-01T14:04:59.336Z,11.98
2024-03-01T14:10:03.000Z,11.98
2024-03-01T14:15:10.123Z,12.04
2024-03-01T14:20:17.397Z,12.10
2024-03-01T14:25:19.566Z,12.16
2024-03-01T14:30:23.829Z,12.09
2024-03-01T14:35:26.110Z,12.14
2024-03-01T14:40:28.614Z,11.98
2024-03-01T14:45:38.440Z,11.85
2024-03-01T14:50:45.226Z,11.84
2024-03-01T14:55:47.003Z,11.80
2024-03-01T15:00:51.142Z,11.70
2024-03-01T15:05:53.060Z,11.65
2024-03-01T15:11:05.340Z,11.57
2024-03-01T15:16:17.380Z,11.55
2024-03-01T15:21:19.709Z,11.47
2024-03-01T15:26:21.387Z,11.47
2024-03-01T15:31:23.681Z,11.46
2024-03-01T15:36:25.365Z,11.50
2024-03-01T15:41:27.105Z,11.48
2024-03-01T15:46:30.487Z,11.47
2024-03-01T15:51:32.235Z,11.43
2024-03-01T15:56:34.519Z,11.38
2024-03-01T16:01:36.627Z,11.32
2024-03-01T16:06:39.228Z,11.24
2024-03-01T16:11:42.469Z,11.03
2024-03-01T16:16:46.796Z,10.90
2024-03-01T16:21:48.556Z,10.80
2024-03-01T16:26:50.275Z,10.68
2024-03-01T16:31:51.982Z,10.54
2024-03-01T16:36:53.686Z,10.38
2024-03-01T16:41:56.087Z,10.19
2024-03-01T16:46:59.895Z,9.97
2024-03-01T16:52:04.589Z,9.88
2024-03-01T16:57:09.300Z,9.82
2024-03-01T17:02:37.973Z,9.75
2024-03-01T17:07:47.701Z,9.68
2024-03-01T17:12:56.412Z,9.65
2024-03-01T17:17:58.670Z,9.58
2024-03-01T17:23:00.428Z,9.53
2024-03-01T17:28:02.752Z,9.51
2024-03-01T17:33:05.468Z,9.49
2024-03-01T17:38:08.340Z,9.46
2024-03-01T17:43:10.672Z,9.42
2024-03-01T17:48:12.377Z,9.39
2024-03-01T17:53:14.213Z,9.36
2024-03-01T17:58:15.894Z,9.32
2024-03-01T18:03:17.627Z,9.30
2024-03-01T18:08:19.280Z,9.29
2024-03-01T18:13:21.725Z,9.28
2024-03-01T18:18:23.610Z,9.26
2024-03-01T18:23:27.343Z,9.24
2024-03-01T18:28:28.983Z,9.23
2024-03-01T18:33:31.053Z,9.24
2024-03-01T18:38:32.697Z,9.21
2024-03-01T18:43:34.703Z,9.12
2024-03-01T18:48:37.110Z,9.07
2024-03-01T18:53:38.903Z,9.02
2024-03-01T18:58:40.629Z,8.96
2024-03-01T19:03:42.638Z,8.96
2024-03-01T19:08:44.377Z,8.90
2024-03-01T19:13:46.068Z,8.79
2024-03-01T19:18:47.852Z,8.73
2024-03-01T19:23:49.525Z,8.66
2024-03-01T19:28:52.299Z,8.62
2024-03-01T19:33:53.956Z,8.60
2024-03-01T19:38:55.718Z,8.56
2024-03-01T19:43:57.757Z,8.53
2024-03-01T19:49:00.247Z,8.51
2024-03-01T19:54:02.007Z,8.51
2024-03-01T19:59:03.916Z,8.50
2024-03-01T20:04:05.893Z,8.46
2024-03-01T20:09:07.898Z,8.42
2024-03-01T20:14:09.815Z,8.34
2024-03-01T20:19:11.588Z,8.24
2024-03-01T20:24:13.664Z,8.22
2024-03-01T20:29:15.585Z,8.22
2024-03-01T20:34:18.357Z,8.21
2024-03-01T20:39:20.094Z,8.20
2024-03-01T20:44:21.818Z,8.16
2024-03-01T20:49:25.004Z,8.10
2024-03-01T20:54:27.063Z,8.05
2024-03-01T20:59:28.857Z,8.02
2024-03-01T21:04:30.728Z,7.97
2024-03-01T21:09:38.230Z,7.94
2024-03-01T21:14:40.317Z,7.91
2024-03-01T21:19:42.336Z,7.88
2024-03-01T21:24:44.046Z,7.84
2024-03-01T21:29:45.707Z,7.80
2024-03-01T21:34:48.073Z,7.80
2024-03-01T21:39:50.216Z,7.77
2024-03-01T21:44:52.028Z,7.78
2024-03-01T21:49:55.760Z,7.80
2024-03-01T21:54:58.150Z,7.81
2024-03-01T21:59:59.890Z,7.81
2024-03-01T22:05:03.612Z,7.84
2024-03-01T22:10:07.894Z,7.84
2024-03-01T22:15:10.036Z,7.81
2024-03-01T22:20:12.146Z,7.77
2024-03-01T22:25:15.420Z,7.73
2024-03-01T22:30:17.372Z,7.64
2024-03-01T22:35:19.121Z,7.56
2024-03-01T22:40:20.838Z,7.55
2024-03-01T22:45:25.054Z,7.52
2024-03-01T22:50:27.301Z,7.53
2024-03-01T22:55:41.623Z,7.52
2024-03-01T23:00:50.362Z,7.52
2024-03-01T23:05:59.426Z,7.51
2024-03-01T23:11:08.012Z,7.52
2024-03-01T23:16:09.817Z,7.54
2024-03-01T23:21:11.840Z,7.56
2024-03-01T23:26:14.226Z,7.57
2024-03-01T23:31:15.889Z,7.59
2024-03-01T23:36:17.667Z,7.61
2024-03-01T23:41:19.301Z,7.65
2024-03-01T23:46:21.048Z,7.70
2024-03-01T23:51:22.786Z,7.75
2024-03-01T23:56:25.334Z,7.87
